Catalina, Arizona
Current Conditions -  °F | °C
As of 9:35 PM on Thursday 18 Dec 2014 (Local Time) from KAVQ Reporting Station
Clear Clear  
Wind Chill: 46°   Ceiling: Unl
Heat Index: 46°   Visibility: 10mi
Dew Point: 44°   Wind: 3mph
Humidity: 92%   Direction: 240°WSW
Pressure: 30.18"   Gusts: NA
Location:  32.48°N, 110.9°W
Report Text: KAVQ 190435Z AUTO 24003KT 10SM CLR 08/07 A3018 RMK AO2 T00800068
Loading
Personal Weather Stations






























Interactive Weather Map New forecast layout! Learn more

10-Day Weather Forecast

Advertisements
Track Severe Weather on mobile